sensor_id;sensor_type;location;lat;lon;timestamp;P1;durP1;ratioP1;P2;durP2;ratioP2
72037;SDS011;59900;50.788;12.904;2022-08-21T00:00:15;24.90;;;14.53;;
72037;SDS011;59900;50.788;12.904;2022-08-21T00:02:48;24.70;;;14.00;;
72037;SDS011;59900;50.788;12.904;2022-08-21T00:05:15;24.02;;;14.10;;
72037;SDS011;59900;50.788;12.904;2022-08-21T00:07:44;22.80;;;13.35;;
72037;SDS011;59900;50.788;12.904;2022-08-21T00:10:12;23.27;;;13.90;;
72037;SDS011;59900;50.788;12.904;2022-08-21T00:12:39;22.53;;;13.13;;
72037;SDS011;59900;50.788;12.904;2022-08-21T00:15:06;24.95;;;13.75;;
72037;SDS011;59900;50.788;12.904;2022-08-21T00:17:34;28.58;;;14.85;;
72037;SDS011;59900;50.788;12.904;2022-08-21T00:19:59;25.00;;;13.27;;
72037;SDS011;59900;50.788;12.904;2022-08-21T00:22:24;23.60;;;13.60;;
72037;SDS011;59900;50.788;12.904;2022-08-21T00:24:50;25.77;;;14.03;;
72037;SDS011;59900;50.788;12.904;2022-08-21T00:27:15;21.73;;;13.03;;
72037;SDS011;59900;50.788;12.904;2022-08-21T00:29:40;24.33;;;13.77;;
72037;SDS011;59900;50.788;12.904;2022-08-21T00:32:06;23.77;;;13.03;;
72037;SDS011;59900;50.788;12.904;2022-08-21T00:34:32;25.08;;;13.35;;
72037;SDS011;59900;50.788;12.904;2022-08-21T00:36:57;23.80;;;13.40;;
72037;SDS011;59900;50.788;12.904;2022-08-21T00:39:22;23.80;;;13.27;;
72037;SDS011;59900;50.788;12.904;2022-08-21T00:41:48;23.47;;;14.23;;
72037;SDS011;59900;50.788;12.904;2022-08-21T00:44:13;23.50;;;13.20;;
72037;SDS011;59900;50.788;12.904;2022-08-21T00:46:40;23.08;;;13.30;;
72037;SDS011;59900;50.788;12.904;2022-08-21T00:49:06;25.80;;;13.93;;
72037;SDS011;59900;50.788;12.904;2022-08-21T00:51:38;23.47;;;13.47;;
72037;SDS011;59900;50.788;12.904;2022-08-21T00:54:07;23.15;;;12.93;;
72037;SDS011;59900;50.788;12.904;2022-08-21T00:56:34;23.20;;;13.27;;
72037;SDS011;59900;50.788;12.904;2022-08-21T00:58:59;25.40;;;14.37;;
72037;SDS011;59900;50.788;12.904;2022-08-21T01:01:26;23.33;;;14.07;;
72037;SDS011;59900;50.788;12.904;2022-08-21T01:03:52;23.58;;;13.32;;
72037;SDS011;59900;50.788;12.904;2022-08-21T01:06:21;24.30;;;12.97;;
72037;SDS011;59900;50.788;12.904;2022-08-21T01:08:46;23.47;;;13.83;;
72037;SDS011;59900;50.788;12.904;2022-08-21T01:11:12;24.40;;;14.37;;
72037;SDS011;59900;50.788;12.904;2022-08-21T01:13:39;24.83;;;13.70;;
72037;SDS011;59900;50.788;12.904;2022-08-21T01:16:10;27.05;;;14.57;;
72037;SDS011;59900;50.788;12.904;2022-08-21T01:18:36;22.47;;;13.27;;
72037;SDS011;59900;50.788;12.904;2022-08-21T01:21:11;23.45;;;13.52;;
72037;SDS011;59900;50.788;12.904;2022-08-21T01:23:41;26.92;;;14.23;;
72037;SDS011;59900;50.788;12.904;2022-08-21T01:26:08;21.67;;;13.23;;
72037;SDS011;59900;50.788;12.904;2022-08-21T01:28:36;26.30;;;14.30;;
72037;SDS011;59900;50.788;12.904;2022-08-21T01:31:05;24.42;;;14.13;;
72037;SDS011;59900;50.788;12.904;2022-08-21T01:33:35;27.00;;;13.98;;
72037;SDS011;59900;50.788;12.904;2022-08-21T01:36:00;23.40;;;13.70;;
72037;SDS011;59900;50.788;12.904;2022-08-21T01:38:26;25.33;;;13.67;;
72037;SDS011;59900;50.788;12.904;2022-08-21T01:40:51;25.55;;;14.35;;
72037;SDS011;59900;50.788;12.904;2022-08-21T01:43:17;23.57;;;13.63;;
72037;SDS011;59900;50.788;12.904;2022-08-21T01:45:42;25.87;;;15.10;;
72037;SDS011;59900;50.788;12.904;2022-08-21T01:48:07;24.63;;;14.50;;
72037;SDS011;59900;50.788;12.904;2022-08-21T01:50:33;26.37;;;14.97;;
72037;SDS011;59900;50.788;12.904;2022-08-21T01:52:58;28.37;;;14.93;;
72037;SDS011;59900;50.788;12.904;2022-08-21T01:55:26;29.48;;;15.38;;
72037;SDS011;59900;50.788;12.904;2022-08-21T01:57:51;28.47;;;16.27;;
72037;SDS011;59900;50.788;12.904;2022-08-21T02:00:18;28.67;;;15.30;;
72037;SDS011;59900;50.788;12.904;2022-08-21T02:02:45;28.92;;;15.60;;
72037;SDS011;59900;50.788;12.904;2022-08-21T02:05:11;29.87;;;16.20;;
72037;SDS011;59900;50.788;12.904;2022-08-21T02:07:38;31.63;;;15.30;;
72037;SDS011;59900;50.788;12.904;2022-08-21T02:10:07;36.78;;;18.08;;
72037;SDS011;59900;50.788;12.904;2022-08-21T02:12:35;37.45;;;17.67;;
72037;SDS011;59900;50.788;12.904;2022-08-21T02:15:00;35.33;;;17.30;;
72037;SDS011;59900;50.788;12.904;2022-08-21T02:17:25;41.40;;;19.13;;
72037;SDS011;59900;50.788;12.904;2022-08-21T02:19:51;40.60;;;18.60;;
72037;SDS011;59900;50.788;12.904;2022-08-21T02:22:16;42.67;;;19.00;;
72037;SDS011;59900;50.788;12.904;2022-08-21T02:24:41;43.77;;;19.23;;
72037;SDS011;59900;50.788;12.904;2022-08-21T02:27:06;50.33;;;22.00;;
72037;SDS011;59900;50.788;12.904;2022-08-21T02:29:32;46.73;;;20.70;;
72037;SDS011;59900;50.788;12.904;2022-08-21T02:31:57;56.43;;;23.07;;
72037;SDS011;59900;50.788;12.904;2022-08-21T02:34:22;53.73;;;23.20;;
72037;SDS011;59900;50.788;12.904;2022-08-21T02:36:48;53.30;;;23.43;;
72037;SDS011;59900;50.788;12.904;2022-08-21T02:39:14;52.13;;;21.77;;
72037;SDS011;59900;50.788;12.904;2022-08-21T02:41:39;55.40;;;23.73;;
72037;SDS011;59900;50.788;12.904;2022-08-21T02:44:04;56.10;;;23.73;;
72037;SDS011;59900;50.788;12.904;2022-08-21T02:46:32;55.42;;;22.20;;
72037;SDS011;59900;50.788;12.904;2022-08-21T02:49:01;53.93;;;23.17;;
72037;SDS011;59900;50.788;12.904;2022-08-21T02:51:26;49.65;;;22.00;;
72037;SDS011;59900;50.788;12.904;2022-08-21T02:53:52;51.23;;;21.60;;
72037;SDS011;59900;50.788;12.904;2022-08-21T02:56:18;48.65;;;21.95;;
72037;SDS011;59900;50.788;12.904;2022-08-21T02:58:47;46.88;;;20.60;;
72037;SDS011;59900;50.788;12.904;2022-08-21T03:01:16;50.80;;;21.63;;
72037;SDS011;59900;50.788;12.904;2022-08-21T03:03:43;46.23;;;20.13;;
72037;SDS011;59900;50.788;12.904;2022-08-21T03:06:11;51.55;;;22.00;;
72037;SDS011;59900;50.788;12.904;2022-08-21T03:08:38;42.65;;;19.90;;
72037;SDS011;59900;50.788;12.904;2022-08-21T03:11:04;48.63;;;20.73;;
72037;SDS011;59900;50.788;12.904;2022-08-21T03:13:30;49.53;;;21.50;;
72037;SDS011;59900;50.788;12.904;2022-08-21T03:15:56;46.72;;;20.77;;
72037;SDS011;59900;50.788;12.904;2022-08-21T03:18:22;45.17;;;20.23;;
72037;SDS011;59900;50.788;12.904;2022-08-21T03:20:48;41.57;;;19.50;;
72037;SDS011;59900;50.788;12.904;2022-08-21T03:23:14;44.50;;;19.60;;
72037;SDS011;59900;50.788;12.904;2022-08-21T03:25:41;44.17;;;19.52;;
72037;SDS011;59900;50.788;12.904;2022-08-21T03:28:10;42.03;;;19.90;;
72037;SDS011;59900;50.788;12.904;2022-08-21T03:30:37;43.40;;;19.00;;
72037;SDS011;59900;50.788;12.904;2022-08-21T03:33:03;46.00;;;19.60;;
72037;SDS011;59900;50.788;12.904;2022-08-21T03:35:28;43.33;;;19.23;;
72037;SDS011;59900;50.788;12.904;2022-08-21T03:37:54;42.40;;;19.15;;
72037;SDS011;59900;50.788;12.904;2022-08-21T03:40:20;41.30;;;19.43;;
72037;SDS011;59900;50.788;12.904;2022-08-21T03:42:47;41.30;;;18.65;;
72037;SDS011;59900;50.788;12.904;2022-08-21T03:45:13;38.22;;;18.08;;
72037;SDS011;59900;50.788;12.904;2022-08-21T03:48:02;36.60;;;17.30;;
72037;SDS011;59900;50.788;12.904;2022-08-21T03:50:34;31.92;;;16.10;;
72037;SDS011;59900;50.788;12.904;2022-08-21T03:53:02;34.97;;;16.48;;
72037;SDS011;59900;50.788;12.904;2022-08-21T03:55:28;32.67;;;16.43;;
72037;SDS011;59900;50.788;12.904;2022-08-21T03:57:56;35.30;;;14.88;;
72037;SDS011;59900;50.788;12.904;2022-08-21T04:00:22;32.60;;;15.73;;
72037;SDS011;59900;50.788;12.904;2022-08-21T04:02:47;34.70;;;16.23;;
72037;SDS011;59900;50.788;12.904;2022-08-21T04:05:15;31.30;;;15.30;;
72037;SDS011;59900;50.788;12.904;2022-08-21T04:07:52;30.90;;;15.60;;
72037;SDS011;59900;50.788;12.904;2022-08-21T04:10:21;35.23;;;15.90;;
72037;SDS011;59900;50.788;12.904;2022-08-21T04:12:49;32.75;;;15.73;;
72037;SDS011;59900;50.788;12.904;2022-08-21T04:15:14;33.73;;;15.63;;
72037;SDS011;59900;50.788;12.904;2022-08-21T04:17:39;32.60;;;15.88;;
72037;SDS011;59900;50.788;12.904;2022-08-21T04:20:05;38.30;;;16.27;;
72037;SDS011;59900;50.788;12.904;2022-08-21T04:22:33;32.37;;;15.33;;
72037;SDS011;59900;50.788;12.904;2022-08-21T04:24:59;32.55;;;15.43;;
72037;SDS011;59900;50.788;12.904;2022-08-21T04:27:24;34.57;;;15.43;;
72037;SDS011;59900;50.788;12.904;2022-08-21T04:29:49;32.70;;;15.30;;
72037;SDS011;59900;50.788;12.904;2022-08-21T04:32:21;32.03;;;15.30;;
72037;SDS011;59900;50.788;12.904;2022-08-21T04:34:47;33.08;;;16.33;;
72037;SDS011;59900;50.788;12.904;2022-08-21T04:37:12;34.03;;;15.00;;
72037;SDS011;59900;50.788;12.904;2022-08-21T04:39:40;30.48;;;14.82;;
72037;SDS011;59900;50.788;12.904;2022-08-21T04:42:05;33.50;;;15.53;;
72037;SDS011;59900;50.788;12.904;2022-08-21T04:44:31;33.80;;;15.77;;
72037;SDS011;59900;50.788;12.904;2022-08-21T04:46:57;30.10;;;13.87;;
72037;SDS011;59900;50.788;12.904;2022-08-21T04:49:22;28.90;;;15.00;;
72037;SDS011;59900;50.788;12.904;2022-08-21T04:51:48;29.97;;;15.43;;
72037;SDS011;59900;50.788;12.904;2022-08-21T04:54:14;29.53;;;14.63;;
72037;SDS011;59900;50.788;12.904;2022-08-21T04:56:54;29.05;;;15.05;;
72037;SDS011;59900;50.788;12.904;2022-08-21T04:59:28;32.97;;;14.95;;
72037;SDS011;59900;50.788;12.904;2022-08-21T05:02:06;29.38;;;14.07;;
72037;SDS011;59900;50.788;12.904;2022-08-21T05:04:33;33.60;;;15.03;;
72037;SDS011;59900;50.788;12.904;2022-08-21T05:07:04;30.02;;;13.85;;
72037;SDS011;59900;50.788;12.904;2022-08-21T05:09:32;30.52;;;15.43;;
72037;SDS011;59900;50.788;12.904;2022-08-21T05:11:58;30.55;;;14.40;;
72037;SDS011;59900;50.788;12.904;2022-08-21T05:14:23;31.10;;;14.77;;
72037;SDS011;59900;50.788;12.904;2022-08-21T05:16:49;30.70;;;15.18;;
72037;SDS011;59900;50.788;12.904;2022-08-21T05:19:15;27.90;;;15.53;;
72037;SDS011;59900;50.788;12.904;2022-08-21T05:21:41;27.70;;;14.33;;
72037;SDS011;59900;50.788;12.904;2022-08-21T05:24:14;30.17;;;15.30;;
72037;SDS011;59900;50.788;12.904;2022-08-21T05:26:39;30.00;;;15.37;;
72037;SDS011;59900;50.788;12.904;2022-08-21T05:29:23;30.15;;;15.48;;
72037;SDS011;59900;50.788;12.904;2022-08-21T05:31:49;29.27;;;14.93;;
72037;SDS011;59900;50.788;12.904;2022-08-21T05:34:17;30.70;;;15.37;;
72037;SDS011;59900;50.788;12.904;2022-08-21T05:36:47;31.52;;;15.10;;
72037;SDS011;59900;50.788;12.904;2022-08-21T05:39:13;29.03;;;15.33;;
72037;SDS011;59900;50.788;12.904;2022-08-21T05:41:38;30.27;;;15.60;;
72037;SDS011;59900;50.788;12.904;2022-08-21T05:44:04;28.87;;;14.83;;
72037;SDS011;59900;50.788;12.904;2022-08-21T05:46:29;28.98;;;15.38;;
72037;SDS011;59900;50.788;12.904;2022-08-21T05:48:55;26.70;;;14.10;;
72037;SDS011;59900;50.788;12.904;2022-08-21T05:51:20;28.70;;;14.80;;
72037;SDS011;59900;50.788;12.904;2022-08-21T05:53:45;28.10;;;14.93;;
72037;SDS011;59900;50.788;12.904;2022-08-21T05:56:14;28.67;;;15.03;;
72037;SDS011;59900;50.788;12.904;2022-08-21T05:58:41;29.08;;;15.60;;
72037;SDS011;59900;50.788;12.904;2022-08-21T06:01:10;29.75;;;15.38;;
72037;SDS011;59900;50.788;12.904;2022-08-21T06:03:36;24.07;;;13.27;;
72037;SDS011;59900;50.788;12.904;2022-08-21T06:06:03;25.80;;;13.60;;
72037;SDS011;59900;50.788;12.904;2022-08-21T06:08:29;25.17;;;14.13;;
72037;SDS011;59900;50.788;12.904;2022-08-21T06:10:54;26.07;;;13.47;;
72037;SDS011;59900;50.788;12.904;2022-08-21T06:13:23;25.07;;;13.80;;
72037;SDS011;59900;50.788;12.904;2022-08-21T06:15:49;25.65;;;13.32;;
72037;SDS011;59900;50.788;12.904;2022-08-21T06:18:18;30.38;;;14.80;;
72037;SDS011;59900;50.788;12.904;2022-08-21T06:20:43;23.35;;;13.00;;
72037;SDS011;59900;50.788;12.904;2022-08-21T06:23:09;23.33;;;12.43;;
72037;SDS011;59900;50.788;12.904;2022-08-21T06:25:34;22.23;;;12.17;;
72037;SDS011;59900;50.788;12.904;2022-08-21T06:28:01;22.55;;;12.57;;
72037;SDS011;59900;50.788;12.904;2022-08-21T06:30:29;24.08;;;12.43;;
72037;SDS011;59900;50.788;12.904;2022-08-21T06:32:54;19.40;;;10.57;;
72037;SDS011;59900;50.788;12.904;2022-08-21T06:35:20;20.90;;;11.43;;
72037;SDS011;59900;50.788;12.904;2022-08-21T06:37:47;23.33;;;11.93;;
72037;SDS011;59900;50.788;12.904;2022-08-21T06:40:12;21.13;;;11.68;;
72037;SDS011;59900;50.788;12.904;2022-08-21T06:42:38;22.57;;;10.70;;
72037;SDS011;59900;50.788;12.904;2022-08-21T06:45:04;19.33;;;11.35;;
72037;SDS011;59900;50.788;12.904;2022-08-21T06:47:30;21.02;;;11.88;;
72037;SDS011;59900;50.788;12.904;2022-08-21T06:49:58;21.70;;;11.80;;
72037;SDS011;59900;50.788;12.904;2022-08-21T06:52:28;22.80;;;12.33;;
72037;SDS011;59900;50.788;12.904;2022-08-21T06:54:53;20.30;;;11.52;;
72037;SDS011;59900;50.788;12.904;2022-08-21T06:57:19;20.50;;;11.67;;
72037;SDS011;59900;50.788;12.904;2022-08-21T06:59:44;22.17;;;12.00;;
72037;SDS011;59900;50.788;12.904;2022-08-21T07:02:09;21.73;;;12.10;;
72037;SDS011;59900;50.788;12.904;2022-08-21T07:04:34;25.30;;;12.43;;
72037;SDS011;59900;50.788;12.904;2022-08-21T07:07:00;20.87;;;11.53;;
72037;SDS011;59900;50.788;12.904;2022-08-21T07:09:25;19.87;;;11.07;;
72037;SDS011;59900;50.788;12.904;2022-08-21T07:11:52;22.02;;;11.27;;
72037;SDS011;59900;50.788;12.904;2022-08-21T07:14:18;20.70;;;10.85;;
72037;SDS011;59900;50.788;12.904;2022-08-21T07:16:44;24.20;;;10.07;;
72037;SDS011;59900;50.788;12.904;2022-08-21T07:19:09;20.00;;;11.03;;
72037;SDS011;59900;50.788;12.904;2022-08-21T07:21:35;19.30;;;10.37;;
72037;SDS011;59900;50.788;12.904;2022-08-21T07:24:00;22.13;;;10.90;;
72037;SDS011;59900;50.788;12.904;2022-08-21T07:26:25;20.30;;;10.37;;
72037;SDS011;59900;50.788;12.904;2022-08-21T07:28:50;21.73;;;11.45;;
72037;SDS011;59900;50.788;12.904;2022-08-21T07:31:16;19.53;;;11.00;;
72037;SDS011;59900;50.788;12.904;2022-08-21T07:33:43;20.52;;;10.63;;
72037;SDS011;59900;50.788;12.904;2022-08-21T07:36:09;19.50;;;10.57;;
72037;SDS011;59900;50.788;12.904;2022-08-21T07:38:35;19.85;;;10.65;;
72037;SDS011;59900;50.788;12.904;2022-08-21T07:41:00;21.57;;;11.13;;
72037;SDS011;59900;50.788;12.904;2022-08-21T07:43:27;18.55;;;11.20;;
72037;SDS011;59900;50.788;12.904;2022-08-21T07:45:53;19.98;;;11.27;;
72037;SDS011;59900;50.788;12.904;2022-08-21T07:48:20;19.90;;;11.63;;
72037;SDS011;59900;50.788;12.904;2022-08-21T07:50:46;20.58;;;11.85;;
72037;SDS011;59900;50.788;12.904;2022-08-21T07:53:12;22.05;;;11.98;;
72037;SDS011;59900;50.788;12.904;2022-08-21T07:55:38;22.07;;;12.37;;
72037;SDS011;59900;50.788;12.904;2022-08-21T07:58:03;18.33;;;10.23;;
72037;SDS011;59900;50.788;12.904;2022-08-21T08:00:28;18.40;;;10.70;;
72037;SDS011;59900;50.788;12.904;2022-08-21T08:02:54;18.80;;;10.73;;
72037;SDS011;59900;50.788;12.904;2022-08-21T08:05:21;17.40;;;10.32;;
72037;SDS011;59900;50.788;12.904;2022-08-21T08:07:50;20.37;;;11.57;;
72037;SDS011;59900;50.788;12.904;2022-08-21T08:10:16;17.75;;;11.00;;
72037;SDS011;59900;50.788;12.904;2022-08-21T08:12:42;18.13;;;9.97;;
72037;SDS011;59900;50.788;12.904;2022-08-21T08:15:10;18.88;;;10.90;;
72037;SDS011;59900;50.788;12.904;2022-08-21T08:17:42;21.13;;;11.38;;
72037;SDS011;59900;50.788;12.904;2022-08-21T08:20:12;17.30;;;10.13;;
72037;SDS011;59900;50.788;12.904;2022-08-21T08:22:38;19.83;;;10.35;;
72037;SDS011;59900;50.788;12.904;2022-08-21T08:25:04;18.40;;;11.30;;
72037;SDS011;59900;50.788;12.904;2022-08-21T08:27:31;17.52;;;10.88;;
72037;SDS011;59900;50.788;12.904;2022-08-21T08:29:56;18.63;;;10.17;;
72037;SDS011;59900;50.788;12.904;2022-08-21T08:32:22;18.83;;;10.50;;
72037;SDS011;59900;50.788;12.904;2022-08-21T08:34:48;16.75;;;10.38;;
72037;SDS011;59900;50.788;12.904;2022-08-21T08:37:14;18.07;;;10.83;;
72037;SDS011;59900;50.788;12.904;2022-08-21T08:39:40;16.42;;;10.25;;
72037;SDS011;59900;50.788;12.904;2022-08-21T08:42:13;15.15;;;9.20;;
72037;SDS011;59900;50.788;12.904;2022-08-21T08:44:41;17.02;;;9.52;;
72037;SDS011;59900;50.788;12.904;2022-08-21T08:47:10;15.80;;;9.87;;
72037;SDS011;59900;50.788;12.904;2022-08-21T08:49:41;18.20;;;9.93;;
72037;SDS011;59900;50.788;12.904;2022-08-21T08:55:06;16.50;;;10.13;;
72037;SDS011;59900;50.788;12.904;2022-08-21T08:57:34;16.67;;;10.23;;
72037;SDS011;59900;50.788;12.904;2022-08-21T09:00:09;16.30;;;9.43;;
72037;SDS011;59900;50.788;12.904;2022-08-21T09:02:39;18.90;;;10.43;;
72037;SDS011;59900;50.788;12.904;2022-08-21T09:05:07;18.63;;;10.07;;
72037;SDS011;59900;50.788;12.904;2022-08-21T09:07:50;21.13;;;11.88;;
72037;SDS011;59900;50.788;12.904;2022-08-21T09:10:39;12.48;;;8.43;;
72037;SDS011;59900;50.788;12.904;2022-08-21T09:15:58;16.05;;;8.32;;
72037;SDS011;59900;50.788;12.904;2022-08-21T09:18:50;14.35;;;9.85;;
72037;SDS011;59900;50.788;12.904;2022-08-21T09:21:28;15.98;;;10.10;;
72037;SDS011;59900;50.788;12.904;2022-08-21T09:26:57;10.23;;;5.87;;
72037;SDS011;59900;50.788;12.904;2022-08-21T09:29:33;11.45;;;7.20;;
72037;SDS011;59900;50.788;12.904;2022-08-21T09:32:03;12.00;;;6.93;;
72037;SDS011;59900;50.788;12.904;2022-08-21T09:34:38;11.77;;;7.00;;
72037;SDS011;59900;50.788;12.904;2022-08-21T09:37:03;11.97;;;7.40;;
72037;SDS011;59900;50.788;12.904;2022-08-21T09:39:32;12.40;;;6.47;;
72037;SDS011;59900;50.788;12.904;2022-08-21T09:42:05;17.58;;;10.35;;
72037;SDS011;59900;50.788;12.904;2022-08-21T09:44:34;11.50;;;7.30;;
72037;SDS011;59900;50.788;12.904;2022-08-21T09:47:04;12.50;;;6.55;;
72037;SDS011;59900;50.788;12.904;2022-08-21T09:49:38;12.13;;;6.07;;
72037;SDS011;59900;50.788;12.904;2022-08-21T09:52:16;8.63;;;5.55;;
72037;SDS011;59900;50.788;12.904;2022-08-21T09:54:44;13.02;;;6.43;;
72037;SDS011;59900;50.788;12.904;2022-08-21T09:57:12;8.77;;;5.57;;
72037;SDS011;59900;50.788;12.904;2022-08-21T10:00:36;8.32;;;4.75;;
72037;SDS011;59900;50.788;12.904;2022-08-21T10:03:16;10.95;;;5.55;;
72037;SDS011;59900;50.788;12.904;2022-08-21T10:08:28;8.98;;;5.75;;
72037;SDS011;59900;50.788;12.904;2022-08-21T10:16:31;7.90;;;5.03;;
72037;SDS011;59900;50.788;12.904;2022-08-21T10:19:03;9.15;;;4.88;;
72037;SDS011;59900;50.788;12.904;2022-08-21T10:24:38;7.73;;;4.33;;
72037;SDS011;59900;50.788;12.904;2022-08-21T10:30:13;9.25;;;3.83;;
72037;SDS011;59900;50.788;12.904;2022-08-21T10:35:53;8.77;;;4.57;;
72037;SDS011;59900;50.788;12.904;2022-08-21T10:43:49;8.00;;;4.17;;
72037;SDS011;59900;50.788;12.904;2022-08-21T10:46:31;9.20;;;3.95;;
72037;SDS011;59900;50.788;12.904;2022-08-21T10:55:32;10.38;;;4.45;;
72037;SDS011;59900;50.788;12.904;2022-08-21T10:58:04;9.53;;;4.07;;
72037;SDS011;59900;50.788;12.904;2022-08-21T11:00:41;8.85;;;3.67;;
72037;SDS011;59900;50.788;12.904;2022-08-21T11:03:12;6.80;;;3.47;;
72037;SDS011;59900;50.788;12.904;2022-08-21T11:05:46;9.75;;;3.63;;
72037;SDS011;59900;50.788;12.904;2022-08-21T11:11:01;8.03;;;3.50;;
72037;SDS011;59900;50.788;12.904;2022-08-21T11:13:49;9.70;;;4.43;;
72037;SDS011;59900;50.788;12.904;2022-08-21T11:16:33;6.57;;;3.60;;
72037;SDS011;59900;50.788;12.904;2022-08-21T11:21:58;8.23;;;2.85;;
72037;SDS011;59900;50.788;12.904;2022-08-21T11:24:35;7.90;;;3.87;;
72037;SDS011;59900;50.788;12.904;2022-08-21T11:27:18;7.78;;;3.58;;
72037;SDS011;59900;50.788;12.904;2022-08-21T11:29:54;7.38;;;3.40;;
72037;SDS011;59900;50.788;12.904;2022-08-21T11:40:57;10.23;;;2.95;;
72037;SDS011;59900;50.788;12.904;2022-08-21T11:46:12;8.75;;;3.55;;
72037;SDS011;59900;50.788;12.904;2022-08-21T11:51:37;6.37;;;2.77;;
72037;SDS011;59900;50.788;12.904;2022-08-21T11:54:21;7.97;;;2.90;;
72037;SDS011;59900;50.788;12.904;2022-08-21T11:56:55;9.85;;;2.80;;
72037;SDS011;59900;50.788;12.904;2022-08-21T11:59:35;6.40;;;2.58;;
72037;SDS011;59900;50.788;12.904;2022-08-21T12:02:15;6.65;;;2.60;;
72037;SDS011;59900;50.788;12.904;2022-08-21T12:04:49;5.70;;;2.70;;
72037;SDS011;59900;50.788;12.904;2022-08-21T12:07:35;5.93;;;2.75;;
72037;SDS011;59900;50.788;12.904;2022-08-21T12:10:05;8.20;;;2.83;;
72037;SDS011;59900;50.788;12.904;2022-08-21T12:12:37;7.00;;;2.75;;
72037;SDS011;59900;50.788;12.904;2022-08-21T12:20:59;6.80;;;3.00;;
72037;SDS011;59900;50.788;12.904;2022-08-21T12:23:27;10.45;;;2.75;;
72037;SDS011;59900;50.788;12.904;2022-08-21T12:29:02;15.68;;;9.88;;
72037;SDS011;59900;50.788;12.904;2022-08-21T12:31:29;6.33;;;2.70;;
72037;SDS011;59900;50.788;12.904;2022-08-21T12:33:56;5.77;;;2.50;;
72037;SDS011;59900;50.788;12.904;2022-08-21T12:36:25;7.18;;;2.80;;
72037;SDS011;59900;50.788;12.904;2022-08-21T12:39:04;7.90;;;2.70;;
72037;SDS011;59900;50.788;12.904;2022-08-21T12:41:44;7.78;;;3.00;;
72037;SDS011;59900;50.788;12.904;2022-08-21T12:44:23;7.07;;;3.13;;
72037;SDS011;59900;50.788;12.904;2022-08-21T12:46:59;6.70;;;3.13;;
72037;SDS011;59900;50.788;12.904;2022-08-21T12:52:01;5.57;;;2.95;;
72037;SDS011;59900;50.788;12.904;2022-08-21T12:54:38;6.55;;;2.70;;
72037;SDS011;59900;50.788;12.904;2022-08-21T12:57:07;5.47;;;2.78;;
72037;SDS011;59900;50.788;12.904;2022-08-21T12:59:36;8.73;;;3.40;;
72037;SDS011;59900;50.788;12.904;2022-08-21T13:02:03;6.70;;;3.13;;
72037;SDS011;59900;50.788;12.904;2022-08-21T13:04:46;6.10;;;2.90;;
72037;SDS011;59900;50.788;12.904;2022-08-21T13:07:15;7.18;;;2.70;;
72037;SDS011;59900;50.788;12.904;2022-08-21T13:09:53;5.32;;;2.60;;
72037;SDS011;59900;50.788;12.904;2022-08-21T13:12:23;8.00;;;2.70;;
72037;SDS011;59900;50.788;12.904;2022-08-21T13:14:50;7.80;;;2.50;;
72037;SDS011;59900;50.788;12.904;2022-08-21T13:17:18;7.15;;;2.90;;
72037;SDS011;59900;50.788;12.904;2022-08-21T13:19:55;7.40;;;2.80;;
72037;SDS011;59900;50.788;12.904;2022-08-21T13:22:23;7.90;;;2.42;;
72037;SDS011;59900;50.788;12.904;2022-08-21T13:24:49;5.37;;;2.30;;
72037;SDS011;59900;50.788;12.904;2022-08-21T13:27:16;7.30;;;3.20;;
72037;SDS011;59900;50.788;12.904;2022-08-21T13:29:43;7.80;;;2.70;;
72037;SDS011;59900;50.788;12.904;2022-08-21T13:32:13;6.43;;;3.00;;
72037;SDS011;59900;50.788;12.904;2022-08-21T13:34:46;10.05;;;3.15;;
72037;SDS011;59900;50.788;12.904;2022-08-21T13:37:12;7.57;;;3.25;;
72037;SDS011;59900;50.788;12.904;2022-08-21T13:39:39;6.20;;;2.80;;
72037;SDS011;59900;50.788;12.904;2022-08-21T13:42:08;6.70;;;2.43;;
72037;SDS011;59900;50.788;12.904;2022-08-21T13:47:05;6.82;;;2.75;;
72037;SDS011;59900;50.788;12.904;2022-08-21T13:49:42;6.03;;;2.80;;
72037;SDS011;59900;50.788;12.904;2022-08-21T13:52:14;5.33;;;2.80;;
72037;SDS011;59900;50.788;12.904;2022-08-21T13:54:53;6.57;;;3.00;;
72037;SDS011;59900;50.788;12.904;2022-08-21T13:57:27;7.85;;;2.50;;
72037;SDS011;59900;50.788;12.904;2022-08-21T14:00:11;7.90;;;2.92;;
72037;SDS011;59900;50.788;12.904;2022-08-21T14:02:40;7.82;;;3.25;;
72037;SDS011;59900;50.788;12.904;2022-08-21T14:05:08;6.07;;;3.00;;
72037;SDS011;59900;50.788;12.904;2022-08-21T14:07:41;6.05;;;3.47;;
72037;SDS011;59900;50.788;12.904;2022-08-21T14:10:16;7.28;;;3.10;;
72037;SDS011;59900;50.788;12.904;2022-08-21T14:12:47;8.38;;;3.50;;
72037;SDS011;59900;50.788;12.904;2022-08-21T14:15:17;6.75;;;3.85;;
72037;SDS011;59900;50.788;12.904;2022-08-21T14:17:48;7.90;;;3.23;;
72037;SDS011;59900;50.788;12.904;2022-08-21T14:20:33;7.13;;;3.30;;
72037;SDS011;59900;50.788;12.904;2022-08-21T14:23:00;7.00;;;3.20;;
72037;SDS011;59900;50.788;12.904;2022-08-21T14:25:28;7.18;;;3.13;;
72037;SDS011;59900;50.788;12.904;2022-08-21T14:27:57;6.68;;;2.78;;
72037;SDS011;59900;50.788;12.904;2022-08-21T14:30:29;7.50;;;3.00;;
72037;SDS011;59900;50.788;12.904;2022-08-21T14:32:56;7.35;;;2.88;;
72037;SDS011;59900;50.788;12.904;2022-08-21T14:35:22;7.67;;;2.70;;
72037;SDS011;59900;50.788;12.904;2022-08-21T14:37:48;6.50;;;3.15;;
72037;SDS011;59900;50.788;12.904;2022-08-21T14:40:18;6.13;;;2.83;;
72037;SDS011;59900;50.788;12.904;2022-08-21T14:42:44;6.65;;;2.90;;
72037;SDS011;59900;50.788;12.904;2022-08-21T14:45:15;8.25;;;3.40;;
72037;SDS011;59900;50.788;12.904;2022-08-21T14:47:44;9.82;;;3.20;;
72037;SDS011;59900;50.788;12.904;2022-08-21T14:50:10;7.43;;;3.37;;
72037;SDS011;59900;50.788;12.904;2022-08-21T14:52:37;6.55;;;2.80;;
72037;SDS011;59900;50.788;12.904;2022-08-21T14:55:04;16.67;;;3.70;;
72037;SDS011;59900;50.788;12.904;2022-08-21T14:57:30;9.18;;;3.13;;
72037;SDS011;59900;50.788;12.904;2022-08-21T14:59:56;8.90;;;2.90;;
72037;SDS011;59900;50.788;12.904;2022-08-21T15:02:22;7.78;;;3.25;;
72037;SDS011;59900;50.788;12.904;2022-08-21T15:04:47;6.77;;;2.97;;
72037;SDS011;59900;50.788;12.904;2022-08-21T15:07:13;6.67;;;2.97;;
72037;SDS011;59900;50.788;12.904;2022-08-21T15:09:38;8.77;;;3.00;;
72037;SDS011;59900;50.788;12.904;2022-08-21T15:12:03;6.13;;;3.43;;
72037;SDS011;59900;50.788;12.904;2022-08-21T15:14:32;6.32;;;3.58;;
72037;SDS011;59900;50.788;12.904;2022-08-21T15:17:01;6.87;;;3.43;;
72037;SDS011;59900;50.788;12.904;2022-08-21T15:19:28;9.38;;;3.85;;
72037;SDS011;59900;50.788;12.904;2022-08-21T15:21:54;6.85;;;3.30;;
72037;SDS011;59900;50.788;12.904;2022-08-21T15:24:20;7.63;;;3.03;;
72037;SDS011;59900;50.788;12.904;2022-08-21T15:26:45;6.70;;;3.37;;
72037;SDS011;59900;50.788;12.904;2022-08-21T15:29:11;6.82;;;3.33;;
72037;SDS011;59900;50.788;12.904;2022-08-21T15:31:36;6.90;;;3.37;;
72037;SDS011;59900;50.788;12.904;2022-08-21T15:34:17;7.38;;;3.40;;
72037;SDS011;59900;50.788;12.904;2022-08-21T15:36:42;6.77;;;3.40;;
72037;SDS011;59900;50.788;12.904;2022-08-21T15:39:07;6.50;;;3.23;;